Time;durP1;ratioP1;P1;durP2;ratioP2;P2;SDS_P1;SDS_P2;PMS_P1;PMS_P2;Temp;Humidity;BMP_temperature;BMP_pressure;BME280_temperature;BME280_humidity;BME280_pressure;Samples;Min_cycle;Max_cycle;Signal;HPM_P1;HPM_P2
2021/11/06 00:01:29;;;;;;;53.57;20.27;;;;;;;10.33;100.00;101118.59;31550392;28;20058;-81
2021/11/06 00:16:31;;;;;;;61.27;24.23;;;;;;;10.35;100.00;101129.84;31558628;28;20055;-80
2021/11/06 00:31:33;;;;;;;52.13;23.23;;;;;;;10.39;100.00;101125.19;31595461;28;20489;-80
2021/11/06 00:46:35;;;;;;;53.17;22.57;;;;;;;10.32;100.00;101130.63;31603518;28;20139;-78
2021/11/06 01:01:37;;;;;;;56.27;23.50;;;;;;;10.29;100.00;101120.53;31548760;28;20151;-78
2021/11/06 01:16:39;;;;;;;50.37;22.77;;;;;;;10.20;100.00;101107.38;31571045;28;20508;-79
2021/11/06 01:31:40;;;;;;;57.57;23.57;;;;;;;10.15;100.00;101123.28;31589411;28;20050;-80
2021/11/06 01:46:42;;;;;;;69.50;24.17;;;;;;;10.09;100.00;101113.97;31567583;28;20082;-78
2021/11/06 02:01:45;;;;;;;66.07;24.77;;;;;;;10.07;100.00;101111.66;31532137;28;20044;-79
2021/11/06 02:16:47;;;;;;;92.37;25.87;;;;;;;10.14;100.00;101105.44;31574124;28;20143;-78
2021/11/06 02:31:49;;;;;;;97.10;22.93;;;;;;;10.12;100.00;101091.47;31568587;28;20094;-78
2021/11/06 02:46:50;;;;;;;110.67;23.30;;;;;;;10.12;100.00;101091.47;31562950;28;20055;-78
2021/11/06 03:01:52;;;;;;;84.67;22.63;;;;;;;10.16;100.00;101081.38;31589819;28;20052;-78
2021/11/06 03:16:54;;;;;;;138.13;25.23;;;;;;;10.09;100.00;101059.72;31582845;28;20474;-78
2021/11/06 03:31:57;;;;;;;134.00;24.20;;;;;;;9.92;100.00;101051.19;31580507;28;20052;-78
2021/11/06 03:46:59;;;;;;;92.20;21.27;;;;;;;9.75;100.00;101041.16;31575292;28;20036;-77
2021/11/06 04:02:02;;;;;;;107.10;20.63;;;;;;;9.78;100.00;101050.47;31600581;28;20048;-77
2021/11/06 04:17:04;;;;;;;100.70;20.47;;;;;;;9.83;100.00;101050.84;31576631;28;20141;-77
2021/11/06 04:32:06;;;;;;;111.70;20.77;;;;;;;9.81;100.00;101055.09;31587974;28;20054;-78
2021/11/06 04:47:08;;;;;;;69.00;20.97;;;;;;;9.75;100.00;101084.53;31584290;28;20385;-78
2021/11/06 05:02:10;;;;;;;101.13;20.57;;;;;;;9.76;100.00;101094.22;31587465;28;20044;-79
2021/11/06 05:17:12;;;;;;;117.67;20.20;;;;;;;9.74;100.00;101104.69;31587039;28;20058;-80
2021/11/06 05:32:14;;;;;;;69.50;18.43;;;;;;;9.80;100.00;101107.78;31595811;28;20048;-78
2021/11/06 05:47:16;;;;;;;73.27;16.00;;;;;;;9.85;100.00;101112.84;31565667;28;20148;-79
2021/11/06 06:02:18;;;;;;;54.20;16.40;;;;;;;10.08;100.00;101117.84;31562732;28;20572;-79
2021/11/06 06:17:20;;;;;;;78.83;17.17;;;;;;;10.01;100.00;101140.31;31574771;28;20052;-78
2021/11/06 06:32:22;;;;;;;71.20;18.23;;;;;;;10.00;100.00;101165.13;31564291;28;20054;-78
2021/11/06 06:47:24;;;;;;;47.20;19.33;;;;;;;10.24;100.00;101202.34;31557064;28;20439;-77
2021/11/06 07:02:30;;;;;;;44.30;18.60;;;;;;;10.52;100.00;101191.44;31590417;28;20549;-82
2021/11/06 07:17:32;;;;;;;61.37;20.33;;;;;;;10.84;100.00;101206.91;31577983;28;20062;-78
2021/11/06 07:32:34;;;;;;;50.07;19.97;;;;;;;11.19;100.00;101217.63;31574459;28;20055;-77
2021/11/06 07:47:37;;;;;;;41.37;16.37;;;;;;;11.37;100.00;101195.78;31561418;28;20050;-78
2021/11/06 08:02:40;;;;;;;39.30;15.00;;;;;;;11.54;100.00;101183.25;31586390;28;20572;-80
2021/11/06 08:17:42;;;;;;;39.83;16.07;;;;;;;11.59;100.00;101191.75;31593201;28;20062;-78
2021/11/06 08:32:46;;;;;;;30.93;11.87;;;;;;;11.85;100.00;101200.56;31590170;28;20055;-75
2021/11/06 08:47:49;;;;;;;30.53;12.60;;;;;;;11.97;100.00;101188.41;31559719;28;20048;-76
2021/11/06 09:02:51;;;;;;;27.27;11.23;;;;;;;12.05;100.00;101157.22;31558586;28;20135;-79
2021/11/06 09:17:53;;;;;;;29.60;15.53;;;;;;;12.12;100.00;101146.28;31549325;28;20044;-78
2021/11/06 09:32:55;;;;;;;29.67;13.13;;;;;;;12.07;100.00;101144.78;31567753;28;20044;-79
2021/11/06 09:47:57;;;;;;;35.87;18.60;;;;;;;11.85;100.00;101176.06;31565147;28;20432;-78
2021/11/06 10:02:59;;;;;;;28.93;12.97;;;;;;;11.95;100.00;101167.06;31537436;28;20040;-78
2021/11/06 10:18:16;;;;;;;30.40;12.53;;;;;;;12.10;100.00;101165.75;31557986;28;20489;-77
2021/11/06 10:33:19;;;;;;;35.73;14.80;;;;;;;12.10;100.00;101152.13;31598607;28;20044;-77
2021/11/06 10:48:23;;;;;;;41.60;16.13;;;;;;;12.19;100.00;101151.69;31590354;28;20048;-81
2021/11/06 11:03:59;;;;;;;41.47;15.90;;;;;;;12.32;100.00;101139.09;31599451;28;20044;-78
2021/11/06 11:19:09;;;;;;;46.53;16.67;;;;;;;12.35;100.00;101126.63;31561351;28;20460;-76
2021/11/06 11:34:11;;;;;;;44.10;15.67;;;;;;;12.36;100.00;101123.50;31592716;28;20067;-77
2021/11/06 11:49:15;;;;;;;47.73;16.07;;;;;;;12.45;100.00;101104.72;31598307;28;20435;-79
2021/11/06 12:04:18;;;;;;;43.63;16.77;;;;;;;12.51;100.00;101105.06;31594122;28;20075;-78
2021/11/06 12:19:45;;;;;;;48.73;17.63;;;;;;;12.59;100.00;101133.75;31581321;28;20056;-76
2021/11/06 12:34:50;;;;;;;32.07;13.73;;;;;;;12.58;100.00;101124.03;31554248;28;20048;-79
2021/11/06 12:49:53;;;;;;;35.08;14.02;;;;;;;12.58;100.00;101141.13;31589982;28;20565;-81
2021/11/06 13:04:57;;;;;;;25.90;11.70;;;;;;;12.54;100.00;101136.91;31606274;28;20408;-78
2021/11/06 13:20:13;;;;;;;30.40;14.27;;;;;;;12.47;100.00;101116.00;31598798;28;20054;-81
2021/11/06 13:35:20;;;;;;;30.67;14.47;;;;;;;12.45;100.00;101137.41;31614411;28;20048;-80
2021/11/06 13:50:22;;;;;;;14.97;8.67;;;;;;;12.34;100.00;101163.97;31610469;28;20139;-80
2021/11/06 14:05:25;;;;;;;12.43;7.30;;;;;;;12.18;100.00;101166.47;31555761;28;20054;-77
2021/11/06 14:20:46;;;;;;;32.50;13.57;;;;;;;12.02;100.00;101136.28;31574905;28;20044;-78
2021/11/06 14:35:48;;;;;;;28.07;14.30;;;;;;;11.80;100.00;101168.34;31571631;28;20142;-80
2021/11/06 14:51:00;;;;;;;8.40;4.17;;;;;;;11.61;96.36;101175.03;31556504;28;20478;-79
2021/11/06 15:06:10;;;;;;;7.17;3.40;;;;;;;11.54;94.71;101166.94;31572378;28;20048;-80
2021/11/06 15:21:14;;;;;;;6.17;2.50;;;;;;;11.39;95.81;101193.44;31610666;28;20103;-82
2021/11/06 15:36:16;;;;;;;6.57;3.70;;;;;;;11.19;95.43;101214.91;31615664;28;20043;-79
2021/11/06 16:06:39;;;;;;;12.03;6.00;;;;;;;10.99;95.33;101238.28;31601967;28;20533;-80
2021/11/06 16:21:41;;;;;;;13.90;7.03;;;;;;;10.84;96.73;101261.22;31597111;28;20043;-79
2021/11/06 16:36:43;;;;;;;8.87;5.37;;;;;;;10.52;98.97;101272.13;31603587;28;20056;-79
2021/11/06 16:51:46;;;;;;;11.03;7.30;;;;;;;10.25;100.00;101291.50;31585362;28;20188;-78
2021/11/06 17:06:48;;;;;;;6.70;4.73;;;;;;;9.99;100.00;101315.47;31610210;28;20440;-78
2021/11/06 17:21:50;;;;;;;9.33;5.23;;;;;;;9.74;99.55;101299.16;31628393;28;20076;-79
2021/11/06 17:36:52;;;;;;;8.73;4.77;;;;;;;9.51;99.38;101297.53;31580295;28;20139;-80
2021/11/06 17:52:09;;;;;;;6.27;4.33;;;;;;;9.35;97.84;101307.91;31614842;28;20070;-81
2021/11/06 18:07:11;;;;;;;10.33;5.90;;;;;;;9.26;95.54;101306.69;31599077;28;20135;-80
2021/11/06 18:22:13;;;;;;;9.43;5.07;;;;;;;9.09;94.49;101319.78;31611334;28;20045;-79
2021/11/06 18:37:15;;;;;;;7.70;5.10;;;;;;;8.92;94.08;101336.72;31577571;28;20147;-79
2021/11/06 18:52:17;;;;;;;12.30;5.93;;;;;;;8.92;94.12;101339.41;31613656;28;20123;-81
2021/11/06 19:07:20;;;;;;;12.50;6.50;;;;;;;8.85;93.18;101358.31;31632440;28;20052;-81
2021/11/06 19:22:23;;;;;;;9.17;6.20;;;;;;;8.80;92.39;101355.94;31620219;28;20463;-81
2021/11/06 19:37:25;;;;;;;9.07;5.80;;;;;;;8.57;93.12;101358.84;31599001;28;20052;-79
2021/11/06 19:52:27;;;;;;;11.73;6.20;;;;;;;8.40;92.93;101360.25;31616378;28;20086;-79
2021/11/06 20:07:29;;;;;;;12.23;7.27;;;;;;;8.33;92.88;101376.44;31628763;28;20048;-81
2021/11/06 20:22:31;;;;;;;13.67;7.00;;;;;;;8.29;92.31;101386.41;31588766;28;20131;-75
2021/11/06 20:37:33;;;;;;;12.77;7.80;;;;;;;8.28;91.80;101371.31;31566976;28;20420;-79
2021/11/06 20:52:35;;;;;;;12.77;6.50;;;;;;;8.16;92.00;101366.19;31580056;28;20048;-78
2021/11/06 21:07:38;;;;;;;8.10;5.70;;;;;;;7.98;91.23;101366.00;31584101;28;20048;-80
2021/11/06 21:22:41;;;;;;;11.17;5.50;;;;;;;7.94;92.33;101359.00;31591553;28;20044;-79
2021/11/06 21:37:47;;;;;;;8.57;5.43;;;;;;;7.91;91.57;101365.13;31589066;28;20418;-79
2021/11/06 21:52:49;;;;;;;;;;;;;;;7.77;90.90;101376.56;31606353;28;20101;-79
2021/11/06 22:07:51;;;;;;;9.40;6.83;;;;;;;7.55;92.49;101378.22;31567499;28;19931;-78
2021/11/06 22:22:55;;;;;;;15.37;6.73;;;;;;;7.27;93.93;101380.53;31535923;28;20044;-78
2021/11/06 22:37:58;;;;;;;11.23;6.00;;;;;;;7.05;93.30;101385.63;31585741;28;20091;-79
2021/11/06 22:53:01;;;;;;;16.67;7.10;;;;;;;6.95;94.66;101380.06;31583474;28;20145;-79
2021/11/06 23:08:03;;;;;;;12.40;6.63;;;;;;;6.87;94.96;101379.16;31588835;28;20052;-79
2021/11/06 23:23:09;;;;;;;12.17;7.27;;;;;;;6.96;95.21;101381.63;31537675;28;20046;-78
2021/11/06 23:38:11;;;;;;;13.77;7.43;;;;;;;6.91;94.69;101379.22;31593701;28;20553;-78
2021/11/06 23:53:27;;;;;;;14.33;7.70;;;;;;;6.80;92.89;101384.47;31603842;28;20048;-77
